Time;durP1;ratioP1;P1;durP2;ratioP2;P2;SDS_P1;SDS_P2;PMS_P1;PMS_P2;Temp;Humidity;BMP_temperature;BMP_pressure;BME280_temperature;BME280_humidity;BME280_pressure;Samples;Min_cycle;Max_cycle;Signal;HPM_P1;HPM_P2
2022/03/14 00:01:24;;;;;;;7.30;6.57;;;;;;;;;;4993578;28;20673;-69
2022/03/14 00:03:59;;;;;;;8.00;7.17;;;;;;;;;;4996672;28;20201;-69
2022/03/14 00:06:25;;;;;;;8.77;7.60;;;;;;;;;;4994054;28;20428;-69
2022/03/14 00:08:54;;;;;;;13.90;7.67;;;;;;;;;;4997201;28;20472;-70
2022/03/14 00:11:19;;;;;;;9.10;7.63;;;;;;;;;;4997942;28;20427;-69
2022/03/14 00:13:46;;;;;;;8.53;7.00;;;;;;;;;;5000345;28;21095;-69
2022/03/14 00:16:14;;;;;;;7.67;6.53;;;;;;;;;;4995963;28;20212;-68
2022/03/14 00:18:43;;;;;;;9.63;7.30;;;;;;;;;;4994825;28;20554;-69
2022/03/14 00:21:10;;;;;;;8.23;7.37;;;;;;;;;;4992075;28;20475;-68
2022/03/14 00:23:36;;;;;;;8.73;7.50;;;;;;;;;;4994303;28;20439;-69
2022/03/14 00:26:04;;;;;;;7.73;6.97;;;;;;;;;;4994625;28;20814;-68
2022/03/14 00:28:30;;;;;;;8.10;7.27;;;;;;;;;;4997023;28;20208;-68
2022/03/14 00:30:55;;;;;;;8.50;6.73;;;;;;;;;;4996450;28;20443;-67
2022/03/14 00:33:20;;;;;;;9.57;7.50;;;;;;;;;;4994754;28;21116;-69
2022/03/14 00:35:46;;;;;;;8.83;7.07;;;;;;;;;;4995803;28;20235;-69
2022/03/14 00:38:11;;;;;;;8.80;7.17;;;;;;;;;;4996693;28;20379;-68
2022/03/14 00:40:37;;;;;;;9.40;7.00;;;;;;;;;;4992566;28;20695;-68
2022/03/14 00:43:02;;;;;;;8.33;7.53;;;;;;;;;;4995582;28;20185;-69
2022/03/14 00:45:27;;;;;;;9.00;6.87;;;;;;;;;;4996459;28;20556;-68
2022/03/14 00:47:53;;;;;;;9.13;7.40;;;;;;;;;;4997816;28;20187;-68
2022/03/14 00:50:18;;;;;;;10.30;7.10;;;;;;;;;;4995116;28;20187;-68
2022/03/14 00:52:44;;;;;;;9.57;6.77;;;;;;;;;;4996995;28;20200;-69
2022/03/14 00:55:09;;;;;;;9.80;7.60;;;;;;;;;;4992901;28;20189;-68
2022/03/14 00:57:35;;;;;;;8.37;7.37;;;;;;;;;;4997510;28;20192;-68
2022/03/14 01:00:00;;;;;;;9.50;7.83;;;;;;;;;;4997921;28;20240;-68
2022/03/14 01:02:25;;;;;;;7.50;6.80;;;;;;;;;;4997715;28;20189;-69
2022/03/14 01:04:51;;;;;;;9.30;7.40;;;;;;;;;;5011184;28;20185;-68
2022/03/14 01:07:16;;;;;;;9.57;7.73;;;;;;;;;;4994953;28;20981;-68
2022/03/14 01:09:42;;;;;;;9.90;8.20;;;;;;;;;;4996954;28;20228;-69
2022/03/14 01:12:08;;;;;;;10.70;7.60;;;;;;;;;;4995355;28;20209;-69
2022/03/14 01:14:33;;;;;;;9.13;7.87;;;;;;;;;;4996298;28;20193;-68
2022/03/14 01:16:59;;;;;;;8.60;7.40;;;;;;;;;;4995205;28;20491;-68
2022/03/14 01:19:24;;;;;;;11.77;8.10;;;;;;;;;;4993108;28;20205;-69
2022/03/14 01:21:49;;;;;;;10.20;7.97;;;;;;;;;;4993885;28;20236;-69
2022/03/14 01:24:15;;;;;;;9.47;7.37;;;;;;;;;;4995241;28;20189;-69
2022/03/14 01:26:40;;;;;;;9.93;7.10;;;;;;;;;;4996532;28;20638;-69
2022/03/14 01:29:07;;;;;;;8.33;6.97;;;;;;;;;;4995254;28;20197;-68
2022/03/14 01:31:33;;;;;;;11.30;8.17;;;;;;;;;;4995927;28;20263;-69
2022/03/14 01:33:59;;;;;;;9.47;7.90;;;;;;;;;;5000737;28;20434;-69
2022/03/14 01:36:24;;;;;;;9.37;8.40;;;;;;;;;;4997494;28;20726;-68
2022/03/14 01:38:49;;;;;;;9.30;8.07;;;;;;;;;;4994981;28;20448;-69
2022/03/14 01:41:16;;;;;;;11.07;8.17;;;;;;;;;;4993378;28;20301;-69
2022/03/14 01:43:42;;;;;;;9.20;7.83;;;;;;;;;;4996131;28;20185;-68
2022/03/14 01:46:07;;;;;;;10.17;8.10;;;;;;;;;;4995743;28;20436;-69
2022/03/14 01:48:32;;;;;;;10.30;8.20;;;;;;;;;;4990724;28;20205;-69
2022/03/14 01:50:58;;;;;;;8.80;7.97;;;;;;;;;;4995158;28;20189;-67
2022/03/14 01:53:23;;;;;;;10.40;9.03;;;;;;;;;;4993093;28;20567;-68
2022/03/14 01:55:50;;;;;;;9.90;8.00;;;;;;;;;;4991531;28;20654;-68
2022/03/14 01:58:16;;;;;;;9.77;8.77;;;;;;;;;;4991906;28;20205;-69
2022/03/14 02:00:41;;;;;;;10.70;8.20;;;;;;;;;;4996437;28;20475;-69
2022/03/14 02:03:07;;;;;;;9.80;7.73;;;;;;;;;;4998157;28;20424;-68
2022/03/14 02:05:37;;;;;;;10.67;8.00;;;;;;;;;;4995399;28;20602;-68
2022/03/14 02:08:05;;;;;;;9.90;7.80;;;;;;;;;;4994509;28;20209;-69
2022/03/14 02:10:31;;;;;;;8.70;7.87;;;;;;;;;;4991907;28;20856;-69
2022/03/14 02:12:56;;;;;;;9.83;8.00;;;;;;;;;;4993788;28;20978;-69
2022/03/14 02:15:22;;;;;;;11.20;8.87;;;;;;;;;;4988686;28;20647;-69
2022/03/14 02:17:47;;;;;;;10.57;8.50;;;;;;;;;;4994948;28;20189;-69
2022/03/14 02:20:13;;;;;;;14.53;9.67;;;;;;;;;;4992300;28;20694;-69
2022/03/14 02:22:38;;;;;;;10.13;8.47;;;;;;;;;;4990645;28;20230;-68
2022/03/14 02:25:08;;;;;;;10.50;8.97;;;;;;;;;;4997013;28;20267;-68
2022/03/14 02:27:34;;;;;;;8.67;7.70;;;;;;;;;;4999230;28;20702;-68
2022/03/14 02:29:59;;;;;;;12.03;9.13;;;;;;;;;;5014133;28;20554;-68
2022/03/14 02:32:24;;;;;;;8.67;7.77;;;;;;;;;;4997812;28;20431;-68
2022/03/14 02:34:50;;;;;;;9.83;7.83;;;;;;;;;;4999887;28;20219;-68
2022/03/14 02:37:15;;;;;;;12.50;8.70;;;;;;;;;;4994751;28;20277;-67
2022/03/14 02:39:41;;;;;;;9.67;8.03;;;;;;;;;;4998601;28;20205;-68
2022/03/14 02:42:06;;;;;;;8.67;7.80;;;;;;;;;;4999970;28;20177;-69
2022/03/14 02:44:32;;;;;;;9.80;8.00;;;;;;;;;;4997491;28;20198;-68
2022/03/14 02:46:58;;;;;;;10.60;8.70;;;;;;;;;;4999377;28;20173;-68
2022/03/14 02:49:23;;;;;;;10.40;8.13;;;;;;;;;;4997691;28;20204;-68
2022/03/14 02:51:48;;;;;;;8.60;7.70;;;;;;;;;;4998820;28;21019;-68
2022/03/14 02:54:14;;;;;;;9.67;8.23;;;;;;;;;;4991409;28;20193;-69
2022/03/14 02:56:40;;;;;;;15.90;9.07;;;;;;;;;;4998726;28;20658;-69
2022/03/14 02:59:06;;;;;;;9.77;8.00;;;;;;;;;;4999197;28;20205;-70
2022/03/14 03:01:32;;;;;;;10.73;8.57;;;;;;;;;;4996497;28;20470;-68
2022/03/14 03:03:57;;;;;;;11.33;8.30;;;;;;;;;;5000081;28;20935;-70
2022/03/14 03:06:23;;;;;;;9.73;8.70;;;;;;;;;;4999061;28;20404;-69
2022/03/14 03:08:49;;;;;;;10.23;8.33;;;;;;;;;;5015611;22;20656;-78
2022/03/14 03:11:14;;;;;;;10.53;8.50;;;;;;;;;;5015518;28;20689;-77
2022/03/14 03:13:43;;;;;;;11.10;8.60;;;;;;;;;;5021739;28;20489;-78
2022/03/14 03:16:09;;;;;;;13.50;9.70;;;;;;;;;;5020925;28;20188;-78
2022/03/14 03:18:35;;;;;;;10.23;7.90;;;;;;;;;;5015962;28;20448;-78
2022/03/14 03:21:00;;;;;;;10.30;9.20;;;;;;;;;;5003650;28;20190;-78
2022/03/14 03:23:26;;;;;;;9.70;8.60;;;;;;;;;;5003115;28;20192;-78
2022/03/14 03:25:51;;;;;;;8.90;7.83;;;;;;;;;;5002166;28;20177;-78
2022/03/14 03:28:16;;;;;;;12.37;9.77;;;;;;;;;;5005201;28;20271;-78
2022/03/14 03:30:42;;;;;;;10.20;8.87;;;;;;;;;;5001699;28;20664;-78
2022/03/14 03:33:07;;;;;;;9.77;8.50;;;;;;;;;;5002062;28;20351;-78
2022/03/14 03:35:32;;;;;;;13.33;8.80;;;;;;;;;;5002133;28;20185;-78
2022/03/14 03:37:58;;;;;;;10.43;9.10;;;;;;;;;;5006094;28;20181;-77
2022/03/14 03:40:24;;;;;;;10.37;8.73;;;;;;;;;;5005265;28;20879;-78
2022/03/14 03:42:49;;;;;;;10.53;8.80;;;;;;;;;;5003631;28;20525;-78
2022/03/14 03:45:15;;;;;;;12.43;9.37;;;;;;;;;;5000078;28;20181;-77
2022/03/14 03:47:41;;;;;;;11.03;8.70;;;;;;;;;;5002187;28;20185;-78
2022/03/14 03:50:06;;;;;;;10.27;9.20;;;;;;;;;;5003059;28;20448;-78
2022/03/14 03:52:32;;;;;;;11.60;9.50;;;;;;;;;;5004175;28;20862;-78
2022/03/14 03:54:57;;;;;;;11.73;9.13;;;;;;;;;;5002457;28;20549;-78
2022/03/14 03:57:25;;;;;;;10.40;9.20;;;;;;;;;;5003564;28;20181;-79
2022/03/14 03:59:51;;;;;;;11.50;9.83;;;;;;;;;;5001238;28;20689;-78
2022/03/14 04:02:19;;;;;;;11.47;10.27;;;;;;;;;;5001380;28;20436;-78
2022/03/14 04:04:46;;;;;;;10.10;8.90;;;;;;;;;;5001912;28;20193;-79
2022/03/14 04:07:12;;;;;;;11.20;9.90;;;;;;;;;;5002975;28;20800;-78
2022/03/14 04:09:38;;;;;;;13.27;9.20;;;;;;;;;;5004342;28;20467;-78
2022/03/14 04:12:03;;;;;;;12.20;9.80;;;;;;;;;;5004538;28;20436;-78
2022/03/14 04:14:29;;;;;;;10.93;9.77;;;;;;;;;;4999358;28;20189;-78
2022/03/14 04:16:54;;;;;;;13.67;10.07;;;;;;;;;;5000200;28;20189;-78
2022/03/14 04:19:20;;;;;;;10.47;9.40;;;;;;;;;;5001585;28;20204;-78
2022/03/14 04:21:48;;;;;;;11.97;9.00;;;;;;;;;;5001087;28;20231;-78
2022/03/14 04:24:13;;;;;;;10.60;9.50;;;;;;;;;;5003298;28;20200;-78
2022/03/14 04:26:39;;;;;;;12.90;9.50;;;;;;;;;;5002549;28;21191;-78
2022/03/14 04:29:05;;;;;;;10.70;8.33;;;;;;;;;;5003691;28;20278;-78
2022/03/14 04:31:31;;;;;;;10.40;9.30;;;;;;;;;;5002540;28;20268;-78
2022/03/14 04:33:57;;;;;;;10.20;9.20;;;;;;;;;;5000881;28;21019;-79
2022/03/14 04:36:22;;;;;;;10.67;9.53;;;;;;;;;;5001512;28;20193;-79
2022/03/14 04:38:48;;;;;;;10.80;9.70;;;;;;;;;;5001273;28;20523;-78
2022/03/14 04:41:14;;;;;;;11.07;9.00;;;;;;;;;;5001860;28;20209;-79
2022/03/14 04:43:39;;;;;;;10.23;9.13;;;;;;;;;;5002664;28;20189;-78
2022/03/14 04:46:04;;;;;;;11.67;9.87;;;;;;;;;;5004014;28;20444;-78
2022/03/14 04:48:30;;;;;;;9.83;8.53;;;;;;;;;;5003706;28;20205;-78
2022/03/14 04:50:56;;;;;;;12.17;10.17;;;;;;;;;;5001552;28;20189;-78
2022/03/14 04:53:22;;;;;;;10.17;9.10;;;;;;;;;;5001597;28;20195;-78
2022/03/14 04:55:47;;;;;;;11.50;10.27;;;;;;;;;;5000779;28;20440;-78
2022/03/14 04:58:14;;;;;;;13.70;10.37;;;;;;;;;;5001306;28;20947;-78
2022/03/14 05:00:39;;;;;;;11.07;9.87;;;;;;;;;;4997739;28;20201;-79
2022/03/14 05:03:06;;;;;;;12.63;9.90;;;;;;;;;;4992903;28;20998;-78
2022/03/14 05:05:31;;;;;;;10.93;9.70;;;;;;;;;;4998359;28;20231;-78
2022/03/14 05:07:56;;;;;;;11.50;10.17;;;;;;;;;;5000239;28;20468;-77
2022/03/14 05:10:23;;;;;;;10.83;9.70;;;;;;;;;;4999600;28;21218;-78
2022/03/14 05:12:48;;;;;;;11.77;10.10;;;;;;;;;;4999834;28;20181;-78
2022/03/14 05:15:17;;;;;;;12.60;10.77;;;;;;;;;;4995124;28;20920;-78
2022/03/14 05:17:43;;;;;;;13.00;10.00;;;;;;;;;;4999463;28;20213;-78
2022/03/14 05:20:09;;;;;;;12.20;10.50;;;;;;;;;;4999205;28;20903;-77
2022/03/14 05:22:41;;;;;;;11.67;9.70;;;;;;;;;;4996303;28;20204;-77
2022/03/14 05:25:06;;;;;;;11.57;10.47;;;;;;;;;;4995339;28;20916;-77
2022/03/14 05:27:31;;;;;;;11.63;10.43;;;;;;;;;;4997881;28;20435;-77
2022/03/14 05:29:57;;;;;;;12.23;10.93;;;;;;;;;;4995727;28;20618;-77
2022/03/14 05:32:23;;;;;;;11.03;9.63;;;;;;;;;;4990758;28;20192;-77
2022/03/14 05:34:48;;;;;;;12.27;10.83;;;;;;;;;;5000148;28;20181;-78
2022/03/14 05:37:14;;;;;;;12.70;10.27;;;;;;;;;;5004274;28;20459;-78
2022/03/14 05:39:39;;;;;;;14.83;10.43;;;;;;;;;;4998303;28;20204;-78
2022/03/14 05:42:05;;;;;;;11.27;10.03;;;;;;;;;;4994085;28;20308;-78
2022/03/14 05:44:30;;;;;;;13.00;10.70;;;;;;;;;;4992694;28;20185;-77
2022/03/14 05:46:56;;;;;;;12.83;11.30;;;;;;;;;;4993295;28;20479;-79
2022/03/14 05:49:21;;;;;;;11.90;10.00;;;;;;;;;;4993733;28;20292;-78
2022/03/14 05:51:46;;;;;;;12.90;11.20;;;;;;;;;;4996925;28;20636;-77
2022/03/14 05:54:12;;;;;;;11.53;10.40;;;;;;;;;;4995746;28;20185;-78
2022/03/14 05:56:37;;;;;;;13.20;10.37;;;;;;;;;;4997755;28;20193;-78
2022/03/14 05:59:02;;;;;;;11.50;10.30;;;;;;;;;;4994779;28;20232;-77
2022/03/14 06:01:28;;;;;;;12.60;11.30;;;;;;;;;;4994893;28;20189;-77
2022/03/14 06:03:53;;;;;;;11.90;10.70;;;;;;;;;;4995047;28;20348;-77
2022/03/14 06:06:18;;;;;;;13.07;11.37;;;;;;;;;;4995211;28;20177;-78
2022/03/14 06:08:44;;;;;;;12.87;10.90;;;;;;;;;;5011756;28;20216;-77
2022/03/14 06:11:09;;;;;;;12.40;10.43;;;;;;;;;;4995603;28;20622;-77
2022/03/14 06:13:35;;;;;;;12.30;10.87;;;;;;;;;;4994070;28;20193;-76
2022/03/14 06:16:01;;;;;;;12.57;11.20;;;;;;;;;;4995227;28;20288;-77
2022/03/14 06:18:29;;;;;;;12.73;11.27;;;;;;;;;;4988892;28;20455;-77
2022/03/14 06:20:54;;;;;;;14.57;11.47;;;;;;;;;;4958664;28;20267;-77
2022/03/14 06:23:19;;;;;;;13.00;11.70;;;;;;;;;;4984030;28;20443;-78
2022/03/14 06:25:45;;;;;;;13.17;11.77;;;;;;;;;;4979060;28;20177;-77
2022/03/14 06:28:10;;;;;;;15.80;11.07;;;;;;;;;;4992390;28;20185;-76
2022/03/14 06:30:35;;;;;;;12.73;11.07;;;;;;;;;;4988602;28;20475;-76
2022/03/14 06:33:01;;;;;;;12.50;11.00;;;;;;;;;;4990470;28;20181;-76
2022/03/14 06:35:26;;;;;;;14.63;11.90;;;;;;;;;;4987308;28;20276;-76
2022/03/14 06:37:52;;;;;;;12.47;11.00;;;;;;;;;;4991774;28;20476;-77
2022/03/14 06:40:17;;;;;;;12.43;10.63;;;;;;;;;;4991280;28;20296;-76
2022/03/14 06:42:49;;;;;;;15.40;11.73;;;;;;;;;;4992644;28;20236;-76
2022/03/14 06:45:19;;;;;;;12.00;10.50;;;;;;;;;;4987128;28;20188;-75
2022/03/14 06:47:45;;;;;;;13.40;10.67;;;;;;;;;;4978653;28;20440;-76
2022/03/14 06:50:10;;;;;;;14.00;11.07;;;;;;;;;;4975469;28;20882;-75
2022/03/14 06:52:36;;;;;;;15.50;11.80;;;;;;;;;;4986097;28;20195;-75
2022/03/14 06:55:04;;;;;;;12.40;10.80;;;;;;;;;;4991035;28;22494;-76
2022/03/14 06:57:30;;;;;;;12.10;10.80;;;;;;;;;;4986847;28;21073;-78
2022/03/14 06:59:55;;;;;;;11.97;10.30;;;;;;;;;;4990972;28;20476;-76
2022/03/14 07:02:24;;;;;;;12.03;10.10;;;;;;;;;;4983181;28;20185;-75
2022/03/14 07:04:49;;;;;;;11.30;9.43;;;;;;;;;;4991309;28;20181;-75
2022/03/14 07:07:14;;;;;;;12.57;10.33;;;;;;;;;;4987898;28;20442;-75
2022/03/14 07:09:40;;;;;;;10.77;9.67;;;;;;;;;;4974858;28;20224;-75
2022/03/14 07:12:05;;;;;;;10.10;8.97;;;;;;;;;;4992200;28;20605;-76
2022/03/14 07:14:30;;;;;;;11.10;9.13;;;;;;;;;;4979320;28;20275;-77
2022/03/14 07:16:56;;;;;;;9.57;8.57;;;;;;;;;;4987872;28;20717;-77
2022/03/14 07:19:21;;;;;;;11.83;8.90;;;;;;;;;;4994827;28;20196;-77
2022/03/14 07:21:46;;;;;;;9.00;8.10;;;;;;;;;;4989107;28;20184;-75
2022/03/14 07:24:12;;;;;;;9.67;8.67;;;;;;;;;;4992832;28;20733;-76
2022/03/14 07:26:37;;;;;;;11.37;8.60;;;;;;;;;;4991532;28;20182;-76
2022/03/14 07:29:03;;;;;;;9.77;8.77;;;;;;;;;;4992592;28;20216;-76
2022/03/14 07:31:28;;;;;;;10.40;9.10;;;;;;;;;;4986360;28;20192;-76
2022/03/14 07:33:53;;;;;;;10.33;8.53;;;;;;;;;;4974873;28;20192;-76
2022/03/14 07:36:19;;;;;;;9.73;8.73;;;;;;;;;;4985031;28;20720;-75
2022/03/14 07:38:44;;;;;;;9.57;8.53;;;;;;;;;;4992878;28;20205;-75
2022/03/14 07:41:10;;;;;;;9.27;8.13;;;;;;;;;;4995418;28;20201;-74
2022/03/14 07:43:36;;;;;;;12.13;8.90;;;;;;;;;;4990928;28;20244;-74
2022/03/14 07:46:04;;;;;;;9.30;7.40;;;;;;;;;;4991049;28;20184;-74
2022/03/14 07:48:30;;;;;;;8.83;7.47;;;;;;;;;;4986629;28;20201;-74
2022/03/14 07:50:55;;;;;;;10.10;8.03;;;;;;;;;;4993344;28;20440;-74
2022/03/14 07:53:20;;;;;;;7.83;7.07;;;;;;;;;;4982246;28;20513;-75
2022/03/14 07:55:46;;;;;;;10.67;7.67;;;;;;;;;;4988638;28;20239;-75
2022/03/14 07:58:11;;;;;;;9.43;7.37;;;;;;;;;;4990081;28;20189;-75
2022/03/14 08:00:37;;;;;;;11.40;7.90;;;;;;;;;;4985843;28;20209;-75
2022/03/14 08:03:02;;;;;;;13.77;8.73;;;;;;;;;;4990109;28;20192;-75
2022/03/14 08:05:28;;;;;;;10.03;7.90;;;;;;;;;;4989414;28;20188;-76
2022/03/14 08:07:54;;;;;;;7.90;7.10;;;;;;;;;;4986391;28;20427;-74
2022/03/14 08:10:19;;;;;;;8.10;7.00;;;;;;;;;;4991074;28;20204;-74
2022/03/14 08:12:46;;;;;;;8.20;7.33;;;;;;;;;;4989151;28;20440;-76
2022/03/14 08:15:17;;;;;;;9.97;7.70;;;;;;;;;;4987463;28;20212;-75
2022/03/14 08:17:42;;;;;;;7.60;6.80;;;;;;;;;;5000849;28;20832;-76
2022/03/14 08:20:08;;;;;;;8.30;7.50;;;;;;;;;;4991473;28;21078;-76
2022/03/14 08:22:33;;;;;;;10.13;8.00;;;;;;;;;;4992344;28;20267;-74
2022/03/14 08:24:59;;;;;;;9.83;7.80;;;;;;;;;;4978593;28;20551;-75
2022/03/14 08:27:25;;;;;;;10.37;7.60;;;;;;;;;;4984227;28;20177;-74
2022/03/14 08:29:50;;;;;;;9.23;8.27;;;;;;;;;;4985006;28;20271;-78
2022/03/14 08:32:15;;;;;;;10.93;7.80;;;;;;;;;;4987299;28;20315;-74
2022/03/14 08:34:42;;;;;;;12.33;8.43;;;;;;;;;;4988506;28;20299;-76
2022/03/14 08:37:07;;;;;;;11.90;8.10;;;;;;;;;;4991861;28;20223;-73
2022/03/14 08:39:33;;;;;;;9.97;8.97;;;;;;;;;;4992834;28;20916;-77
2022/03/14 08:41:58;;;;;;;11.63;8.27;;;;;;;;;;4992653;28;20767;-75
2022/03/14 08:44:24;;;;;;;8.97;7.60;;;;;;;;;;4990656;28;20181;-75
2022/03/14 08:46:49;;;;;;;8.67;7.80;;;;;;;;;;4990435;28;20808;-74
2022/03/14 08:49:14;;;;;;;8.53;7.63;;;;;;;;;;4991134;28;20225;-74
2022/03/14 08:51:40;;;;;;;9.83;8.40;;;;;;;;;;4985656;28;20189;-74
2022/03/14 08:54:06;;;;;;;8.33;7.47;;;;;;;;;;4990632;28;20192;-74
2022/03/14 08:56:33;;;;;;;10.47;9.37;;;;;;;;;;4988683;28;20717;-75
2022/03/14 08:58:58;;;;;;;10.17;8.43;;;;;;;;;;4989813;28;20266;-75
2022/03/14 09:01:24;;;;;;;9.73;8.10;;;;;;;;;;4984510;28;20460;-75
2022/03/14 09:03:49;;;;;;;9.63;8.63;;;;;;;;;;4990985;28;20178;-73
2022/03/14 09:06:14;;;;;;;10.33;9.13;;;;;;;;;;4989235;28;20247;-73
2022/03/14 09:08:40;;;;;;;12.77;10.50;;;;;;;;;;4986555;28;20212;-74
2022/03/14 09:11:05;;;;;;;16.33;9.97;;;;;;;;;;4987402;28;20189;-74
2022/03/14 09:13:31;;;;;;;11.53;9.00;;;;;;;;;;4988717;28;20189;-76
2022/03/14 09:15:56;;;;;;;11.27;10.07;;;;;;;;;;4987475;28;20193;-77
2022/03/14 09:18:26;;;;;;;11.80;9.20;;;;;;;;;;4988531;28;20236;-74
2022/03/14 09:20:52;;;;;;;11.97;8.80;;;;;;;;;;4994625;28;20698;-74
2022/03/14 09:23:20;;;;;;;12.13;9.50;;;;;;;;;;4990104;28;20439;-74
2022/03/14 09:25:46;;;;;;;11.17;8.43;;;;;;;;;;4989762;28;20429;-74
2022/03/14 09:28:11;;;;;;;11.67;8.70;;;;;;;;;;4989320;28;20447;-75
2022/03/14 09:30:37;;;;;;;10.07;8.50;;;;;;;;;;5004862;28;20310;-74
2022/03/14 09:33:02;;;;;;;12.80;10.37;;;;;;;;;;4988017;28;20185;-74
2022/03/14 09:35:27;;;;;;;10.37;9.37;;;;;;;;;;4994848;28;21871;-74
2022/03/14 09:37:54;;;;;;;11.23;9.60;;;;;;;;;;4997037;28;20193;-73
2022/03/14 09:40:20;;;;;;;11.80;10.27;;;;;;;;;;4993333;28;20232;-74
2022/03/14 09:42:50;;;;;;;10.13;9.13;;;;;;;;;;4991756;28;20438;-74
2022/03/14 09:45:16;;;;;;;10.77;9.00;;;;;;;;;;4985660;28;20515;-74
2022/03/14 09:47:42;;;;;;;9.47;8.23;;;;;;;;;;4986787;28;20444;-74
2022/03/14 09:50:09;;;;;;;12.37;9.80;;;;;;;;;;4988968;28;20213;-74
2022/03/14 09:52:37;;;;;;;11.00;9.53;;;;;;;;;;4990882;28;20522;-77
2022/03/14 09:55:04;;;;;;;11.40;9.90;;;;;;;;;;4987228;28;20440;-76
2022/03/14 09:57:30;;;;;;;12.37;10.87;;;;;;;;;;4989600;28;20445;-77
2022/03/14 09:59:55;;;;;;;12.80;9.80;;;;;;;;;;4993786;28;20475;-74
2022/03/14 10:02:21;;;;;;;11.40;10.23;;;;;;;;;;4990304;28;20788;-77
2022/03/14 10:04:47;;;;;;;12.17;9.80;;;;;;;;;;4989095;28;20327;-76
2022/03/14 10:07:12;;;;;;;10.80;9.70;;;;;;;;;;4993527;28;20432;-74
2022/03/14 10:09:37;;;;;;;11.50;9.80;;;;;;;;;;4989381;28;20213;-74
2022/03/14 10:12:04;;;;;;;11.10;9.63;;;;;;;;;;4975299;28;20193;-75
2022/03/14 10:14:30;;;;;;;9.73;8.73;;;;;;;;;;4972376;28;20189;-75
2022/03/14 10:16:56;;;;;;;11.03;9.90;;;;;;;;;;4980722;28;20429;-74
2022/03/14 10:19:28;;;;;;;12.27;9.90;;;;;;;;;;4984107;28;20304;-75
2022/03/14 10:21:53;;;;;;;10.23;9.13;;;;;;;;;;4990904;28;20440;-74
2022/03/14 10:24:22;;;;;;;10.43;9.20;;;;;;;;;;4989101;28;20521;-74
2022/03/14 10:26:48;;;;;;;14.10;10.07;;;;;;;;;;4978801;28;20653;-75
2022/03/14 10:29:14;;;;;;;12.90;11.20;;;;;;;;;;4978717;28;20467;-75
2022/03/14 10:31:43;;;;;;;10.30;9.30;;;;;;;;;;4974880;28;20445;-75
2022/03/14 10:34:11;;;;;;;13.17;10.53;;;;;;;;;;4984594;28;20284;-74
2022/03/14 10:36:39;;;;;;;11.43;10.33;;;;;;;;;;4984427;28;20449;-74
2022/03/14 10:39:30;;;;;;;10.50;9.50;;;;;;;;;;4987353;28;20488;-74
2022/03/14 10:42:07;;;;;;;11.47;10.27;;;;;;;;;;4988084;28;20712;-74
2022/03/14 10:44:33;;;;;;;12.70;11.40;;;;;;;;;;4989541;28;20439;-74
2022/03/14 10:46:59;;;;;;;10.60;9.10;;;;;;;;;;4995012;28;20859;-74
2022/03/14 10:49:29;;;;;;;11.00;9.90;;;;;;;;;;4987917;28;20201;-74
2022/03/14 10:51:59;;;;;;;12.40;11.23;;;;;;;;;;4994794;28;20435;-74
2022/03/14 10:54:24;;;;;;;12.47;11.27;;;;;;;;;;4983664;28;20446;-74
2022/03/14 10:56:59;;;;;;;10.80;9.70;;;;;;;;;;4987956;28;20448;-73
2022/03/14 10:59:35;;;;;;;10.73;9.63;;;;;;;;;;4989849;28;20204;-73
2022/03/14 11:02:01;;;;;;;11.37;10.13;;;;;;;;;;4993460;28;20447;-74
2022/03/14 11:04:27;;;;;;;13.70;11.30;;;;;;;;;;4992695;28;20432;-73
2022/03/14 11:06:59;;;;;;;10.73;9.70;;;;;;;;;;4991060;28;20443;-73
2022/03/14 11:09:36;;;;;;;11.60;10.13;;;;;;;;;;4991827;28;20459;-74
2022/03/14 11:12:05;;;;;;;13.23;11.90;;;;;;;;;;4994521;28;20435;-74
2022/03/14 11:14:30;;;;;;;12.90;10.37;;;;;;;;;;4993507;28;20440;-73
2022/03/14 11:17:08;;;;;;;13.17;11.60;;;;;;;;;;4995699;28;20457;-74
2022/03/14 11:19:33;;;;;;;12.20;10.90;;;;;;;;;;4994199;28;20204;-73
2022/03/14 11:21:58;;;;;;;11.90;10.77;;;;;;;;;;4997551;28;21126;-73
2022/03/14 11:24:24;;;;;;;15.73;11.13;;;;;;;;;;4994581;28;20583;-73
2022/03/14 11:26:50;;;;;;;12.47;10.93;;;;;;;;;;4996418;28;20177;-73
2022/03/14 11:29:15;;;;;;;13.00;11.27;;;;;;;;;;4996643;28;20201;-73
2022/03/14 11:31:47;;;;;;;10.90;9.83;;;;;;;;;;4992867;28;20518;-73
2022/03/14 11:34:13;;;;;;;12.23;11.03;;;;;;;;;;4995773;28;20219;-74
2022/03/14 11:36:39;;;;;;;12.33;11.13;;;;;;;;;;4992263;28;20429;-74
2022/03/14 11:39:04;;;;;;;11.40;10.30;;;;;;;;;;4986183;28;20444;-74
2022/03/14 11:41:29;;;;;;;12.20;10.90;;;;;;;;;;4989293;28;20216;-74
2022/03/14 11:43:55;;;;;;;12.27;10.80;;;;;;;;;;4989681;28;20292;-73
2022/03/14 11:46:20;;;;;;;11.00;9.90;;;;;;;;;;4991559;28;20181;-73
2022/03/14 11:48:45;;;;;;;12.37;11.07;;;;;;;;;;4994902;28;20948;-74
2022/03/14 11:51:11;;;;;;;11.07;10.07;;;;;;;;;;4995877;28;20189;-74
2022/03/14 11:53:46;;;;;;;12.23;11.03;;;;;;;;;;4987974;28;20357;-74
2022/03/14 11:56:12;;;;;;;12.80;11.50;;;;;;;;;;4992330;28;20216;-74
2022/03/14 11:58:37;;;;;;;12.67;11.47;;;;;;;;;;4993855;28;20592;-73
2022/03/14 12:01:12;;;;;;;9.43;8.53;;;;;;;;;;4988149;28;20216;-73
2022/03/14 12:03:41;;;;;;;9.30;8.27;;;;;;;;;;4993679;28;20191;-74
2022/03/14 12:06:08;;;;;;;11.57;9.23;;;;;;;;;;4994837;28;20943;-73
2022/03/14 12:08:36;;;;;;;8.97;7.90;;;;;;;;;;4991031;28;20451;-73
2022/03/14 12:11:20;;;;;;;9.57;8.03;;;;;;;;;;4992639;28;20443;-73
2022/03/14 12:13:47;;;;;;;11.50;8.90;;;;;;;;;;4995991;28;20555;-73
2022/03/14 12:16:30;;;;;;;13.73;10.10;;;;;;;;;;4989116;28;20649;-75
2022/03/14 12:18:59;;;;;;;15.73;9.40;;;;;;;;;;4992148;28;20456;-75
2022/03/14 12:21:44;;;;;;;13.87;10.43;;;;;;;;;;4992009;28;20546;-73
2022/03/14 12:24:17;;;;;;;18.70;10.80;;;;;;;;;;4992390;28;20960;-72
2022/03/14 12:26:43;;;;;;;19.43;11.80;;;;;;;;;;4988744;28;20451;-71
2022/03/14 12:29:27;;;;;;;18.57;11.30;;;;;;;;;;4983255;28;20447;-71
2022/03/14 12:32:13;;;;;;;17.43;10.80;;;;;;;;;;4989928;28;20808;-72
2022/03/14 12:34:38;;;;;;;18.63;10.83;;;;;;;;;;4992327;28;20437;-72
2022/03/14 12:37:22;;;;;;;14.73;10.00;;;;;;;;;;4988217;28;20920;-71
2022/03/14 12:39:48;;;;;;;19.53;10.57;;;;;;;;;;4982253;28;20646;-72
2022/03/14 12:42:21;;;;;;;15.70;10.73;;;;;;;;;;4993314;28;20436;-71
2022/03/14 12:45:05;;;;;;;17.60;11.50;;;;;;;;;;4992063;28;20181;-71
2022/03/14 12:47:31;;;;;;;19.87;10.60;;;;;;;;;;4990413;28;20457;-71
2022/03/14 12:49:56;;;;;;;20.40;10.40;;;;;;;;;;4994353;28;20942;-71
2022/03/14 12:52:21;;;;;;;17.90;10.10;;;;;;;;;;4994332;28;20245;-71
2022/03/14 12:54:47;;;;;;;19.13;10.40;;;;;;;;;;4990102;28;20216;-71
2022/03/14 12:57:13;;;;;;;14.07;8.10;;;;;;;;;;4993520;28;20196;-71
2022/03/14 12:59:44;;;;;;;13.93;9.10;;;;;;;;;;4991394;28;20205;-71
2022/03/14 13:02:11;;;;;;;16.13;8.30;;;;;;;;;;4990686;28;20173;-70
2022/03/14 13:04:37;;;;;;;17.33;8.50;;;;;;;;;;4988925;28;20443;-72
2022/03/14 13:07:03;;;;;;;16.73;8.07;;;;;;;;;;4982021;28;21723;-71
2022/03/14 13:09:29;;;;;;;16.97;8.33;;;;;;;;;;4996105;22;20243;-66
2022/03/14 13:11:58;;;;;;;11.77;8.00;;;;;;;;;;4991811;28;20455;-69
2022/03/14 13:14:24;;;;;;;14.67;8.37;;;;;;;;;;4992539;28;20189;-70
2022/03/14 13:16:53;;;;;;;21.03;8.63;;;;;;;;;;4989415;28;20450;-69
2022/03/14 13:19:19;;;;;;;16.87;9.43;;;;;;;;;;4993178;28;20189;-69
2022/03/14 13:21:45;;;;;;;15.00;8.70;;;;;;;;;;4992669;28;20483;-69
2022/03/14 13:24:10;;;;;;;19.50;8.77;;;;;;;;;;4988962;28;20219;-69
2022/03/14 13:26:46;;;;;;;17.37;9.10;;;;;;;;;;4992068;28;20443;-69
2022/03/14 13:29:12;;;;;;;17.03;8.87;;;;;;;;;;4991589;28;20207;-69
2022/03/14 13:31:38;;;;;;;15.70;9.30;;;;;;;;;;4991271;28;20547;-69
2022/03/14 13:34:04;;;;;;;19.83;8.70;;;;;;;;;;4987757;28;20200;-69
2022/03/14 13:36:34;;;;;;;14.57;7.83;;;;;;;;;;4994380;28;20439;-69
2022/03/14 13:39:01;;;;;;;14.33;8.57;;;;;;;;;;4994679;28;20464;-69
2022/03/14 13:41:27;;;;;;;16.80;8.80;;;;;;;;;;4986005;28;20503;-69
2022/03/14 13:43:54;;;;;;;17.50;8.93;;;;;;;;;;4989693;28;20447;-69
2022/03/14 13:46:28;;;;;;;15.70;8.20;;;;;;;;;;4990559;28;20486;-70
2022/03/14 13:49:18;;;;;;;15.00;8.90;;;;;;;;;;4990331;28;20436;-69
2022/03/14 13:51:57;;;;;;;15.50;8.17;;;;;;;;;;4977834;28;20444;-69
2022/03/14 13:54:23;;;;;;;15.60;8.73;;;;;;;;;;4989331;28;20444;-69
2022/03/14 13:56:49;;;;;;;24.13;9.53;;;;;;;;;;4994208;28;20917;-69
2022/03/14 13:59:27;;;;;;;17.00;8.93;;;;;;;;;;4995615;28;20483;-69
2022/03/14 14:02:13;;;;;;;18.67;10.53;;;;;;;;;;4991391;28;20467;-69
2022/03/14 14:04:38;;;;;;;16.50;9.93;;;;;;;;;;4989225;28;20543;-69
2022/03/14 14:07:13;;;;;;;15.80;9.47;;;;;;;;;;4993969;28;20439;-69
2022/03/14 14:09:42;;;;;;;17.00;8.73;;;;;;;;;;4993292;28;20204;-69
2022/03/14 14:12:24;;;;;;;19.37;9.57;;;;;;;;;;4988695;28;20502;-69
2022/03/14 14:14:51;;;;;;;23.93;11.50;;;;;;;;;;4990382;28;20466;-69
2022/03/14 14:17:20;;;;;;;20.30;9.40;;;;;;;;;;5006941;28;20881;-69
2022/03/14 14:20:18;;;;;;;13.57;8.83;;;;;;;;;;4994850;28;20590;-69
2022/03/14 14:22:55;;;;;;;14.50;8.47;;;;;;;;;;4970957;28;20468;-69
2022/03/14 14:25:25;;;;;;;16.83;9.00;;;;;;;;;;4981765;28;20436;-69
2022/03/14 14:28:05;;;;;;;19.90;9.83;;;;;;;;;;4996821;28;20436;-69